^^
Meteo Knjazevac Station Historical Data
Daily Summary for June 1, 2021 Units:  Metric    English   Both
Daily Weekly Monthly Yearly Custom
  High: Low: Average:
Temperature: 14.5 °C 11 °C 12.4 °C
Dew Point: 12 °C 9.9 °C 10.8 °C
Humidity: 93% 85% 90%
Wind Speed: 3.2km/h 0km/h 1km/h
Wind Gust: 6.4km/h - -
Wind- - West
Pressure: 1016.5 hPa 1015.5 hPa -
Precipitation: 0 mm    
Historical Graphs
 
 
Tabular Data for June 1, 2021
Time Temperature Dew Point Pressure Wind Wind Speed Wind Gust Humidity Rainfall Rate (Hourly) solar Conditions
00:00 14.5 °C 12 °C 1016.1 hPa West 1.6 km/h 4.8 km/h 85% 0 mm 0 W/m2
00:10 14.3 °C 11.9 °C 1016.1 hPa Calm   3.2 km/h 86% 0 mm 0 W/m2
00:20 14.1 °C 11.8 °C 1016.1 hPa West 1.6 km/h 4.8 km/h 86% 0 mm 0 W/m2
00:30 13.8 °C 11.5 °C 1016.1 hPa Calm   3.2 km/h 86% 0 mm 0 W/m2
00:40 13.6 °C 11.3 °C 1016.5 hPa Calm   3.2 km/h 86% 0 mm 0 W/m2
00:50 13.5 °C 11.6 °C 1016.1 hPa Calm   3.2 km/h 88% 0 mm 0 W/m2
01:00 13.5 °C 11.6 °C 1016.1 hPa Calm   3.2 km/h 88% 0 mm 0 W/m2
01:10 13.4 °C 11.4 °C 1016.1 hPa Calm   3.2 km/h 88% 0 mm 0 W/m2
01:20 13.3 °C 11.3 °C 1016.1 hPa North 1.6 km/h 3.2 km/h 88% 0 mm 0 W/m2
01:30 13 °C 11.1 °C 1016.1 hPa Calm   3.2 km/h 88% 0 mm 0 W/m2
01:40 12.7 °C 10.8 °C 1016.1 hPa West 1.6 km/h 3.2 km/h 88% 0 mm 0 W/m2
01:50 12.3 °C 10.6 °C 1016.1 hPa NW 1.6 km/h 3.2 km/h 89% 0 mm 0 W/m2
02:00 12.2 °C 10.4 °C 1016.1 hPa WNW 1.6 km/h 4.8 km/h 89% 0 mm 0 W/m2
02:10 12.2 °C 10.6 °C 1016.1 hPa West 1.6 km/h 6.4 km/h 90% 0 mm 0 W/m2
02:20 12.1 °C 10.7 °C 1016.1 hPa Calm   4.8 km/h 91% 0 mm 0 W/m2
02:30 12.2 °C 10.8 °C 1016.1 hPa Calm   3.2 km/h 91% 0 mm 0 W/m2
02:40 12.2 °C 10.8 °C 1016.1 hPa West 1.6 km/h 4.8 km/h 91% 0 mm 0 W/m2
02:50 12.2 °C 10.8 °C 1016.1 hPa West 1.6 km/h 3.2 km/h 91% 0 mm 0 W/m2
03:00 11.9 °C 10.3 °C 1016.1 hPa West 1.6 km/h 3.2 km/h 90% 0 mm 0 W/m2
03:10 11.7 °C 10.1 °C 1015.8 hPa West 1.6 km/h 3.2 km/h 90% 0 mm 0 W/m2
03:20 11.6 °C 10.2 °C 1015.8 hPa Calm   3.2 km/h 91% 0 mm 0 W/m2
03:30 11.6 °C 10.5 °C 1015.8 hPa WNW 3.2 km/h 4.8 km/h 93% 0 mm 0 W/m2
03:40 11.6 °C 10.5 °C 1015.8 hPa West 1.6 km/h 4.8 km/h 93% 0 mm 0 W/m2
03:50 11.6 °C 10.5 °C 1015.8 hPa Calm   3.2 km/h 93% 0 mm 0 W/m2
04:00 11.5 °C 10.4 °C 1015.5 hPa Calm   3.2 km/h 93% 0 mm 0 W/m2
04:10 11.3 °C 9.9 °C 1015.5 hPa West 1.6 km/h 4.8 km/h 91% 0 mm 0 W/m2
04:20 11.2 °C 10.1 °C 1015.5 hPa WSW 1.6 km/h 4.8 km/h 93% 0 mm 0 W/m2
04:30 11.1 °C 10 °C 1015.5 hPa WSW 1.6 km/h 3.2 km/h 93% 0 mm 0 W/m2
04:40 11 °C 9.9 °C 1015.5 hPa West 1.6 km/h 4.8 km/h 93% 0 mm 0 W/m2
Knjazevac, Serbia
Compliments of Weather Underground - 2 mb